Etusivu
METAR-TAF:

METAR-TAF

Lentoasemat :

Agri-Science Center

Chillicothe, Missouri, Yhdysvallat

Leveyspiiri: 39-49N, Pituuspiiri: 093-35W, korkeus merenpinnasta: 234 m

Tämänhetkinen sää

Tämä raportti tehtiin 52 minuuttia sitten, kello 19.52 UTC
Tuuli 6 kn luoteesta puuskistuen 19 kn:hen
Lämpötila 4°C
Kosteus 48%
Ilmanpaine 1025 hPa

METAR: KCDJ 261952Z AUTO 32006G19KT 04/M06 A3027 RMK AO1 SLP261 T00391056

Aika: 14:44 (20:44 UTC)


TAF: puuttuu

Säähavainnot ja -ennusteet yli 4000 lentoasemalta (METAR- ja TAF-raportit).

Käytössä olevat sääasemat on merkitty karttaan keltaisilla ja punaisilla pisteillä.

Aseta hiiri pisteen päälle nähdäksesi sääaseman nimen.

Klikkaa sitten nähdäksesi säähavainnot ja -ennusteet.

Kartan vaihtaminen: klikkaa mustalla rastilla varustettuja vihreitä pisteitä, niin voit zoomata sisään; viivalla varustettua vihreää pistettä, niin voit zoomata ulos tai vihreitä nuolia, niin pääset viereisille kartoille.


METAR-TAF: